<?xml version="1.0" encoding="UTF-8" standalone="no" ?>
<gpx xmlns="http://www.topografix.com/GPX/1/1" xmlns:xsi="http://www.w3.org/2001/XMLSchema-instance" xsi:schemaLocation="http://www.topografix.com/GPX/1/1 http://www.topografix.com/GPX/1/1/gpx.xsd" version="1.1" creator="VisuGPX - https://www.visugpx.com">
  <metadata>
    <name>Norvège</name>
  </metadata>
  <trk>
    <name><![CDATA[Tour d'Europe: étape 029]]></name>
    <trkseg>
      <trkpt lat="61.22339" lon="5.20263">
        <ele>84.156036</ele>
        <time>2020-07-27T07:53:44.422Z</time>
      </trkpt>
      <trkpt lat="61.22461" lon="5.20494">
        <ele>90.970795</ele>
        <time>2020-07-27T07:55:29.377Z</time>
      </trkpt>
      <trkpt lat="61.2248" lon="5.20927">
        <ele>95.219433</ele>
        <time>2020-07-27T07:56:45.379Z</time>
      </trkpt>
      <trkpt lat="61.22513" lon="5.21389">
        <ele>103.851945</ele>
        <time>2020-07-27T07:58:06.375Z</time>
      </trkpt>
      <trkpt lat="61.22552" lon="5.21809">
        <ele>110.064469</ele>
        <time>2020-07-27T07:59:25.356Z</time>
      </trkpt>
      <trkpt lat="61.22569" lon="5.22239">
        <ele>117.35481</ele>
        <time>2020-07-27T08:00:44.361Z</time>
      </trkpt>
      <trkpt lat="61.22709" lon="5.22498">
        <ele>120.110488</ele>
        <time>2020-07-27T08:02:02.380Z</time>
      </trkpt>
      <trkpt lat="61.22913" lon="5.22528">
        <ele>127.541306</ele>
        <time>2020-07-27T08:03:16.381Z</time>
      </trkpt>
      <trkpt lat="61.23112" lon="5.22665">
        <ele>139.243249</ele>
        <time>2020-07-27T08:04:46.398Z</time>
      </trkpt>
      <trkpt lat="61.23191" lon="5.22338">
        <ele>161.120837</ele>
        <time>2020-07-27T08:07:09.367Z</time>
      </trkpt>
      <trkpt lat="61.23371" lon="5.22329">
        <ele>173.036315</ele>
        <time>2020-07-27T08:08:55.368Z</time>
      </trkpt>
      <trkpt lat="61.23562" lon="5.22483">
        <ele>170.188188</ele>
        <time>2020-07-27T08:10:25.370Z</time>
      </trkpt>
      <trkpt lat="61.23767" lon="5.22473">
        <ele>173.333404</ele>
        <time>2020-07-27T08:11:37.358Z</time>
      </trkpt>
      <trkpt lat="61.23952" lon="5.22604">
        <ele>177.769976</ele>
        <time>2020-07-27T08:12:50.371Z</time>
      </trkpt>
      <trkpt lat="61.24152" lon="5.22684">
        <ele>191.245192</ele>
        <time>2020-07-27T08:14:34.355Z</time>
      </trkpt>
      <trkpt lat="61.24346" lon="5.2255">
        <ele>196.654951</ele>
        <time>2020-07-27T08:16:02.351Z</time>
      </trkpt>
      <trkpt lat="61.24539" lon="5.22421">
        <ele>192.670838</ele>
        <time>2020-07-27T08:17:03.396Z</time>
      </trkpt>
      <trkpt lat="61.24672" lon="5.22103">
        <ele>202.085041</ele>
        <time>2020-07-27T08:18:02.378Z</time>
      </trkpt>
      <trkpt lat="61.24704" lon="5.21672">
        <ele>198.651273</ele>
        <time>2020-07-27T08:18:45.382Z</time>
      </trkpt>
      <trkpt lat="61.24953" lon="5.21645">
        <ele>192.763311</ele>
        <time>2020-07-27T08:19:48.376Z</time>
      </trkpt>
      <trkpt lat="61.25155" lon="5.2182">
        <ele>195.728394</ele>
        <time>2020-07-27T08:20:39.374Z</time>
      </trkpt>
      <trkpt lat="61.25322" lon="5.22131">
        <ele>195.55717</ele>
        <time>2020-07-27T08:21:31.367Z</time>
      </trkpt>
      <trkpt lat="61.25466" lon="5.22448">
        <ele>195.243944</ele>
        <time>2020-07-27T08:22:22.395Z</time>
      </trkpt>
      <trkpt lat="61.25672" lon="5.22567">
        <ele>197.081204</ele>
        <time>2020-07-27T08:23:10.384Z</time>
      </trkpt>
      <trkpt lat="61.25903" lon="5.22588">
        <ele>201.345317</ele>
        <time>2020-07-27T08:24:11.373Z</time>
      </trkpt>
      <trkpt lat="61.26088" lon="5.22731">
        <ele>195.590409</ele>
        <time>2020-07-27T08:24:52.355Z</time>
      </trkpt>
      <trkpt lat="61.26264" lon="5.22953">
        <ele>189.077085</ele>
        <time>2020-07-27T08:25:33.360Z</time>
      </trkpt>
      <trkpt lat="61.26471" lon="5.23012">
        <ele>183.051829</ele>
        <time>2020-07-27T08:26:16.368Z</time>
      </trkpt>
      <trkpt lat="61.26694" lon="5.22753">
        <ele>173.847328</ele>
        <time>2020-07-27T08:26:49.379Z</time>
      </trkpt>
      <trkpt lat="61.26852" lon="5.22402">
        <ele>162.215298</ele>
        <time>2020-07-27T08:27:09.367Z</time>
      </trkpt>
      <trkpt lat="61.27118" lon="5.22195">
        <ele>147.337379</ele>
        <time>2020-07-27T08:27:44.393Z</time>
      </trkpt>
      <trkpt lat="61.2724" lon="5.21791">
        <ele>151.342628</ele>
        <time>2020-07-27T08:28:30.385Z</time>
      </trkpt>
      <trkpt lat="61.27403" lon="5.21515">
        <ele>150.665379</ele>
        <time>2020-07-27T08:29:27.374Z</time>
      </trkpt>
      <trkpt lat="61.27632" lon="5.21371">
        <ele>125.164452</ele>
        <time>2020-07-27T08:29:54.378Z</time>
      </trkpt>
      <trkpt lat="61.27772" lon="5.21095">
        <ele>112.141902</ele>
        <time>2020-07-27T08:30:16.379Z</time>
      </trkpt>
      <trkpt lat="61.27998" lon="5.20912">
        <ele>99.460546</ele>
        <time>2020-07-27T08:30:45.361Z</time>
      </trkpt>
      <trkpt lat="61.28137" lon="5.20443">
        <ele>92.330272</ele>
        <time>2020-07-27T08:31:24.372Z</time>
      </trkpt>
      <trkpt lat="61.28289" lon="5.20057">
        <ele>90.123729</ele>
        <time>2020-07-27T08:31:56.361Z</time>
      </trkpt>
      <trkpt lat="61.28388" lon="5.19585">
        <ele>86.688568</ele>
        <time>2020-07-27T08:32:38.400Z</time>
      </trkpt>
      <trkpt lat="61.28478" lon="5.19169">
        <ele>86.879711</ele>
        <time>2020-07-27T08:33:20.392Z</time>
      </trkpt>
      <trkpt lat="61.28611" lon="5.18839">
        <ele>87.008575</ele>
        <time>2020-07-27T08:34:02.360Z</time>
      </trkpt>
      <trkpt lat="61.28825" lon="5.18687">
        <ele>75.102232</ele>
        <time>2020-07-27T08:34:35.373Z</time>
      </trkpt>
      <trkpt lat="61.28882" lon="5.18237">
        <ele>61.219787</ele>
        <time>2020-07-27T08:34:56.400Z</time>
      </trkpt>
      <trkpt lat="61.29052" lon="5.17838">
        <ele>51.344835</ele>
        <time>2020-07-27T08:35:26.381Z</time>
      </trkpt>
      <trkpt lat="61.29252" lon="5.17673">
        <ele>52.856824</ele>
        <time>2020-07-27T08:36:03.375Z</time>
      </trkpt>
      <trkpt lat="61.29451" lon="5.17765">
        <ele>62.586697</ele>
        <time>2020-07-27T08:37:15.400Z</time>
      </trkpt>
      <trkpt lat="61.29645" lon="5.17623">
        <ele>74.96335</ele>
        <time>2020-07-27T08:38:37.369Z</time>
      </trkpt>
      <trkpt lat="61.2982" lon="5.17476">
        <ele>90.395642</ele>
        <time>2020-07-27T08:40:18.373Z</time>
      </trkpt>
      <trkpt lat="61.30025" lon="5.17389">
        <ele>80.995838</ele>
        <time>2020-07-27T08:41:36.379Z</time>
      </trkpt>
      <trkpt lat="61.30113" lon="5.16985">
        <ele>65.901182</ele>
        <time>2020-07-27T08:42:13.376Z</time>
      </trkpt>
      <trkpt lat="61.30209" lon="5.16621">
        <ele>70.752862</ele>
        <time>2020-07-27T08:43:25.365Z</time>
      </trkpt>
      <trkpt lat="61.30189" lon="5.16166">
        <ele>76.157082</ele>
        <time>2020-07-27T08:44:48.397Z</time>
      </trkpt>
      <trkpt lat="61.30089" lon="5.15782">
        <ele>79.327563</ele>
        <time>2020-07-27T08:45:52.399Z</time>
      </trkpt>
      <trkpt lat="61.29913" lon="5.15472">
        <ele>76.985453</ele>
        <time>2020-07-27T08:46:42.406Z</time>
      </trkpt>
      <trkpt lat="61.29687" lon="5.15346">
        <ele>76.299817</ele>
        <time>2020-07-27T08:47:30.399Z</time>
      </trkpt>
      <trkpt lat="61.29536" lon="5.14998">
        <ele>76.675371</ele>
        <time>2020-07-27T08:48:31.362Z</time>
      </trkpt>
      <trkpt lat="61.2939" lon="5.14621">
        <ele>64.636654</ele>
        <time>2020-07-27T08:49:00.367Z</time>
      </trkpt>
      <trkpt lat="61.29209" lon="5.14228">
        <ele>52.436606</ele>
        <time>2020-07-27T08:49:30.382Z</time>
      </trkpt>
      <trkpt lat="61.29095" lon="5.13827">
        <ele>54.297157</ele>
        <time>2020-07-27T08:50:28.374Z</time>
      </trkpt>
      <trkpt lat="61.28952" lon="5.1349">
        <ele>60.719403</ele>
        <time>2020-07-27T08:51:52.416Z</time>
      </trkpt>
      <trkpt lat="61.28996" lon="5.13054">
        <ele>55.293701</ele>
        <time>2020-07-27T08:52:26.385Z</time>
      </trkpt>
      <trkpt lat="61.29095" lon="5.1265">
        <ele>57.125602</ele>
        <time>2020-07-27T08:53:20.388Z</time>
      </trkpt>
      <trkpt lat="61.29197" lon="5.12227">
        <ele>68.121593</ele>
        <time>2020-07-27T08:58:00.377Z</time>
      </trkpt>
      <trkpt lat="61.29294" lon="5.11851">
        <ele>77.145725</ele>
        <time>2020-07-27T08:59:32.390Z</time>
      </trkpt>
      <trkpt lat="61.29387" lon="5.11475">
        <ele>79.703764</ele>
        <time>2020-07-27T09:01:07.383Z</time>
      </trkpt>
      <trkpt lat="61.29385" lon="5.10996">
        <ele>76.297737</ele>
        <time>2020-07-27T09:01:48.377Z</time>
      </trkpt>
      <trkpt lat="61.29304" lon="5.1051">
        <ele>71.838325</ele>
        <time>2020-07-27T09:02:30.422Z</time>
      </trkpt>
      <trkpt lat="61.29386" lon="5.10165">
        <ele>73.016564</ele>
        <time>2020-07-27T09:03:25.376Z</time>
      </trkpt>
      <trkpt lat="61.29408" lon="5.09598">
        <ele>71.092667</ele>
        <time>2020-07-27T09:04:12.383Z</time>
      </trkpt>
      <trkpt lat="61.29449" lon="5.09129">
        <ele>70.24811</ele>
        <time>2020-07-27T09:05:09.415Z</time>
      </trkpt>
      <trkpt lat="61.29486" lon="5.08655">
        <ele>62.998028</ele>
        <time>2020-07-27T09:05:42.371Z</time>
      </trkpt>
      <trkpt lat="61.29705" lon="5.08457">
        <ele>54.368993</ele>
        <time>2020-07-27T09:06:22.374Z</time>
      </trkpt>
      <trkpt lat="61.34428" lon="5.06531">
        <ele>40.032402</ele>
        <time>2020-07-27T10:13:40.358Z</time>
      </trkpt>
      <trkpt lat="61.34635" lon="5.06264">
        <ele>50.689672</ele>
        <time>2020-07-27T10:16:51.357Z</time>
      </trkpt>
      <trkpt lat="61.34738" lon="5.06577">
        <ele>53.56943</ele>
        <time>2020-07-27T10:17:54.354Z</time>
      </trkpt>
      <trkpt lat="61.34776" lon="5.07014">
        <ele>50.041029</ele>
        <time>2020-07-27T10:18:46.341Z</time>
      </trkpt>
      <trkpt lat="61.3473" lon="5.07483">
        <ele>51.740251</ele>
        <time>2020-07-27T10:19:42.368Z</time>
      </trkpt>
      <trkpt lat="61.34617" lon="5.07803">
        <ele>62.239868</ele>
        <time>2020-07-27T10:20:55.379Z</time>
      </trkpt>
      <trkpt lat="61.34604" lon="5.08245">
        <ele>74.382733</ele>
        <time>2020-07-27T10:22:35.362Z</time>
      </trkpt>
      <trkpt lat="61.34576" lon="5.0867">
        <ele>75.765562</ele>
        <time>2020-07-27T10:23:38.348Z</time>
      </trkpt>
      <trkpt lat="61.34622" lon="5.09127">
        <ele>69.058731</ele>
        <time>2020-07-27T10:24:28.386Z</time>
      </trkpt>
      <trkpt lat="61.3469" lon="5.09538">
        <ele>65.271234</ele>
        <time>2020-07-27T10:25:08.381Z</time>
      </trkpt>
      <trkpt lat="61.34748" lon="5.09963">
        <ele>63.02261</ele>
        <time>2020-07-27T10:25:48.349Z</time>
      </trkpt>
      <trkpt lat="61.34947" lon="5.10433">
        <ele>51.644104</ele>
        <time>2020-07-27T10:26:28.378Z</time>
      </trkpt>
      <trkpt lat="61.35107" lon="5.10754">
        <ele>54.700607</ele>
        <time>2020-07-27T10:27:20.364Z</time>
      </trkpt>
      <trkpt lat="61.35284" lon="5.11055">
        <ele>61.107269</ele>
        <time>2020-07-27T10:28:22.360Z</time>
      </trkpt>
      <trkpt lat="61.35459" lon="5.11269">
        <ele>72.749277</ele>
        <time>2020-07-27T10:29:56.363Z</time>
      </trkpt>
      <trkpt lat="61.35655" lon="5.11331">
        <ele>78.313898</ele>
        <time>2020-07-27T10:31:27.353Z</time>
      </trkpt>
      <trkpt lat="61.35758" lon="5.11687">
        <ele>82.634119</ele>
        <time>2020-07-27T10:32:31.362Z</time>
      </trkpt>
      <trkpt lat="61.35971" lon="5.1181">
        <ele>81.752968</ele>
        <time>2020-07-27T10:33:36.363Z</time>
      </trkpt>
      <trkpt lat="61.36188" lon="5.11775">
        <ele>81.191878</ele>
        <time>2020-07-27T10:34:32.357Z</time>
      </trkpt>
      <trkpt lat="61.3633" lon="5.11365">
        <ele>75.37705</ele>
        <time>2020-07-27T10:35:12.393Z</time>
      </trkpt>
      <trkpt lat="61.36526" lon="5.11464">
        <ele>65.314302</ele>
        <time>2020-07-27T10:35:34.355Z</time>
      </trkpt>
      <trkpt lat="61.36688" lon="5.11293">
        <ele>62.107239</ele>
        <time>2020-07-27T10:36:09.363Z</time>
      </trkpt>
      <trkpt lat="61.36851" lon="5.10923">
        <ele>59.628841</ele>
        <time>2020-07-27T10:36:50.370Z</time>
      </trkpt>
      <trkpt lat="61.37069" lon="5.10931">
        <ele>59.545427</ele>
        <time>2020-07-27T10:37:45.363Z</time>
      </trkpt>
      <trkpt lat="61.37228" lon="5.10703">
        <ele>70.517898</ele>
        <time>2020-07-27T10:39:24.370Z</time>
      </trkpt>
      <trkpt lat="61.37436" lon="5.10637">
        <ele>73.985913</ele>
        <time>2020-07-27T10:40:40.358Z</time>
      </trkpt>
      <trkpt lat="61.37652" lon="5.10703">
        <ele>72.647611</ele>
        <time>2020-07-27T10:41:37.395Z</time>
      </trkpt>
      <trkpt lat="61.3786" lon="5.10922">
        <ele>68.109457</ele>
        <time>2020-07-27T10:42:04.354Z</time>
      </trkpt>
      <trkpt lat="61.38082" lon="5.109">
        <ele>72.929473</ele>
        <time>2020-07-27T10:43:21.351Z</time>
      </trkpt>
      <trkpt lat="61.38301" lon="5.10912">
        <ele>76.324257</ele>
        <time>2020-07-27T10:44:20.363Z</time>
      </trkpt>
      <trkpt lat="61.38468" lon="5.10689">
        <ele>79.295696</ele>
        <time>2020-07-27T10:45:29.395Z</time>
      </trkpt>
      <trkpt lat="61.38672" lon="5.10845">
        <ele>76.117776</ele>
        <time>2020-07-27T10:46:30.363Z</time>
      </trkpt>
      <trkpt lat="61.38915" lon="5.10762">
        <ele>79.887441</ele>
        <time>2020-07-27T10:47:31.372Z</time>
      </trkpt>
      <trkpt lat="61.3913" lon="5.1092">
        <ele>82.264609</ele>
        <time>2020-07-27T10:48:44.384Z</time>
      </trkpt>
      <trkpt lat="61.3935" lon="5.10978">
        <ele>82.415239</ele>
        <time>2020-07-27T10:49:49.376Z</time>
      </trkpt>
      <trkpt lat="61.39546" lon="5.10976">
        <ele>88.460298</ele>
        <time>2020-07-27T10:51:02.384Z</time>
      </trkpt>
      <trkpt lat="61.39751" lon="5.10956">
        <ele>92.799273</ele>
        <time>2020-07-27T10:52:27.377Z</time>
      </trkpt>
      <trkpt lat="61.39945" lon="5.10829">
        <ele>103.277834</ele>
        <time>2020-07-27T10:53:52.375Z</time>
      </trkpt>
      <trkpt lat="61.40213" lon="5.10717">
        <ele>82.902191</ele>
        <time>2020-07-27T10:54:33.355Z</time>
      </trkpt>
      <trkpt lat="61.40428" lon="5.10796">
        <ele>84.31346</ele>
        <time>2020-07-27T10:55:49.358Z</time>
      </trkpt>
      <trkpt lat="61.40648" lon="5.10711">
        <ele>84.808405</ele>
        <time>2020-07-27T10:56:44.369Z</time>
      </trkpt>
      <trkpt lat="61.40852" lon="5.10915">
        <ele>77.729891</ele>
        <time>2020-07-27T10:57:29.370Z</time>
      </trkpt>
      <trkpt lat="61.41057" lon="5.10975">
        <ele>75.367197</ele>
        <time>2020-07-27T10:58:28.367Z</time>
      </trkpt>
      <trkpt lat="61.41197" lon="5.11311">
        <ele>73.986424</ele>
        <time>2020-07-27T10:59:27.359Z</time>
      </trkpt>
      <trkpt lat="61.41387" lon="5.11618">
        <ele>73.402986</ele>
        <time>2020-07-27T11:00:25.365Z</time>
      </trkpt>
      <trkpt lat="61.41453" lon="5.12043">
        <ele>73.913266</ele>
        <time>2020-07-27T11:01:25.367Z</time>
      </trkpt>
      <trkpt lat="61.41531" lon="5.1249">
        <ele>73.064354</ele>
        <time>2020-07-27T11:02:14.363Z</time>
      </trkpt>
      <trkpt lat="61.41636" lon="5.12941">
        <ele>73.915146</ele>
        <time>2020-07-27T11:03:12.420Z</time>
      </trkpt>
      <trkpt lat="61.4176" lon="5.13367">
        <ele>74.841386</ele>
        <time>2020-07-27T11:04:11.360Z</time>
      </trkpt>
      <trkpt lat="61.41983" lon="5.13458">
        <ele>75.047632</ele>
        <time>2020-07-27T11:05:09.394Z</time>
      </trkpt>
      <trkpt lat="61.42116" lon="5.13821">
        <ele>75.605655</ele>
        <time>2020-07-27T11:06:06.368Z</time>
      </trkpt>
      <trkpt lat="61.42143" lon="5.14266">
        <ele>76.661136</ele>
        <time>2020-07-27T11:07:06.358Z</time>
      </trkpt>
      <trkpt lat="61.42153" lon="5.14722">
        <ele>77.903706</ele>
        <time>2020-07-27T11:08:05.365Z</time>
      </trkpt>
      <trkpt lat="61.42227" lon="5.15128">
        <ele>76.267114</ele>
        <time>2020-07-27T11:08:49.369Z</time>
      </trkpt>
      <trkpt lat="61.42427" lon="5.15237">
        <ele>77.155478</ele>
        <time>2020-07-27T11:09:39.375Z</time>
      </trkpt>
      <trkpt lat="61.42589" lon="5.15586">
        <ele>70.65016</ele>
        <time>2020-07-27T11:10:26.377Z</time>
      </trkpt>
      <trkpt lat="61.42633" lon="5.16105">
        <ele>60.47731</ele>
        <time>2020-07-27T11:11:06.391Z</time>
      </trkpt>
      <trkpt lat="61.42696" lon="5.16588">
        <ele>54.702562</ele>
        <time>2020-07-27T11:11:34.409Z</time>
      </trkpt>
      <trkpt lat="61.42899" lon="5.16755">
        <ele>56.029948</ele>
        <time>2020-07-27T11:12:26.372Z</time>
      </trkpt>
      <trkpt lat="61.43087" lon="5.1657">
        <ele>61.596668</ele>
        <time>2020-07-27T11:13:26.377Z</time>
      </trkpt>
      <trkpt lat="61.43121" lon="5.16606">
        <ele>76.415687</ele>
        <time>2020-07-27T11:15:25.354Z</time>
      </trkpt>
      <trkpt lat="61.43095" lon="5.17021">
        <ele>93.203939</ele>
        <time>2020-07-27T11:17:46.372Z</time>
      </trkpt>
      <trkpt lat="61.43032" lon="5.17398">
        <ele>107.869471</ele>
        <time>2020-07-27T11:20:06.367Z</time>
      </trkpt>
      <trkpt lat="61.43006" lon="5.17809">
        <ele>120.356473</ele>
        <time>2020-07-27T11:22:02.380Z</time>
      </trkpt>
      <trkpt lat="61.42945" lon="5.18193">
        <ele>130.3661</ele>
        <time>2020-07-27T11:23:48.358Z</time>
      </trkpt>
      <trkpt lat="61.42873" lon="5.18557">
        <ele>144.246702</ele>
        <time>2020-07-27T11:26:05.387Z</time>
      </trkpt>
      <trkpt lat="61.42922" lon="5.18948">
        <ele>154.063086</ele>
        <time>2020-07-27T11:27:56.373Z</time>
      </trkpt>
      <trkpt lat="61.43006" lon="5.19342">
        <ele>156.174678</ele>
        <time>2020-07-27T11:31:17.388Z</time>
      </trkpt>
      <trkpt lat="61.43053" lon="5.19753">
        <ele>160.7565</ele>
        <time>2020-07-27T11:32:33.357Z</time>
      </trkpt>
      <trkpt lat="61.43009" lon="5.20121">
        <ele>162.55284</ele>
        <time>2020-07-27T11:33:49.382Z</time>
      </trkpt>
      <trkpt lat="61.43023" lon="5.20746">
        <ele>173.014074</ele>
        <time>2020-07-27T11:35:44.407Z</time>
      </trkpt>
      <trkpt lat="61.43125" lon="5.21173">
        <ele>175.713947</ele>
        <time>2020-07-27T11:36:56.381Z</time>
      </trkpt>
      <trkpt lat="61.43283" lon="5.21428">
        <ele>176.980474</ele>
        <time>2020-07-27T11:37:46.381Z</time>
      </trkpt>
      <trkpt lat="61.43472" lon="5.21542">
        <ele>183.567009</ele>
        <time>2020-07-27T11:39:18.357Z</time>
      </trkpt>
      <trkpt lat="61.43659" lon="5.2165">
        <ele>185.4724</ele>
        <time>2020-07-27T11:40:48.382Z</time>
      </trkpt>
      <trkpt lat="61.43862" lon="5.21767">
        <ele>185.213151</ele>
        <time>2020-07-27T11:41:40.417Z</time>
      </trkpt>
      <trkpt lat="61.44066" lon="5.21893">
        <ele>187.613079</ele>
        <time>2020-07-27T11:42:28.395Z</time>
      </trkpt>
      <trkpt lat="61.44302" lon="5.21854">
        <ele>187.814957</ele>
        <time>2020-07-27T11:43:13.393Z</time>
      </trkpt>
      <trkpt lat="61.44539" lon="5.22013">
        <ele>179.691257</ele>
        <time>2020-07-27T11:43:42.399Z</time>
      </trkpt>
      <trkpt lat="61.44752" lon="5.22127">
        <ele>163.441616</ele>
        <time>2020-07-27T11:44:02.398Z</time>
      </trkpt>
      <trkpt lat="61.44963" lon="5.2205">
        <ele>138.975166</ele>
        <time>2020-07-27T11:44:23.367Z</time>
      </trkpt>
      <trkpt lat="61.45068" lon="5.2161">
        <ele>113.380067</ele>
        <time>2020-07-27T11:44:49.416Z</time>
      </trkpt>
      <trkpt lat="61.45155" lon="5.21661">
        <ele>95.026945</ele>
        <time>2020-07-27T11:45:32.400Z</time>
      </trkpt>
      <trkpt lat="61.45324" lon="5.22057">
        <ele>85.481913</ele>
        <time>2020-07-27T11:46:15.369Z</time>
      </trkpt>
      <trkpt lat="61.45394" lon="5.22557">
        <ele>77.558048</ele>
        <time>2020-07-27T11:46:51.361Z</time>
      </trkpt>
      <trkpt lat="61.45382" lon="5.23058">
        <ele>73.064756</ele>
        <time>2020-07-27T11:47:34.365Z</time>
      </trkpt>
      <trkpt lat="61.45413" lon="5.23565">
        <ele>68.987961</ele>
        <time>2020-07-27T11:48:14.398Z</time>
      </trkpt>
      <trkpt lat="61.45522" lon="5.23996">
        <ele>69.218788</ele>
        <time>2020-07-27T11:49:07.369Z</time>
      </trkpt>
      <trkpt lat="61.45641" lon="5.24375">
        <ele>75.601472</ele>
        <time>2020-07-27T11:50:29.384Z</time>
      </trkpt>
      <trkpt lat="61.45817" lon="5.24624">
        <ele>81.298113</ele>
        <time>2020-07-27T11:51:54.396Z</time>
      </trkpt>
      <trkpt lat="61.45993" lon="5.24849">
        <ele>86.878974</ele>
        <time>2020-07-27T11:53:17.391Z</time>
      </trkpt>
      <trkpt lat="61.46193" lon="5.25108">
        <ele>77.295654</ele>
        <time>2020-07-27T11:53:46.368Z</time>
      </trkpt>
      <trkpt lat="61.46415" lon="5.2541">
        <ele>72.058765</ele>
        <time>2020-07-27T11:54:27.378Z</time>
      </trkpt>
      <trkpt lat="61.46614" lon="5.25546">
        <ele>78.027517</ele>
        <time>2020-07-27T11:55:53.368Z</time>
      </trkpt>
      <trkpt lat="61.46829" lon="5.25676">
        <ele>72.307407</ele>
        <time>2020-07-27T11:56:25.406Z</time>
      </trkpt>
      <trkpt lat="61.46977" lon="5.26073">
        <ele>67.697057</ele>
        <time>2020-07-27T11:56:58.394Z</time>
      </trkpt>
      <trkpt lat="61.47047" lon="5.26501">
        <ele>75.934915</ele>
        <time>2020-07-27T11:57:59.375Z</time>
      </trkpt>
      <trkpt lat="61.47072" lon="5.26948">
        <ele>81.169026</ele>
        <time>2020-07-27T11:59:12.394Z</time>
      </trkpt>
      <trkpt lat="61.47033" lon="5.27444">
        <ele>74.304729</ele>
        <time>2020-07-27T11:59:54.429Z</time>
      </trkpt>
      <trkpt lat="61.46983" lon="5.27915">
        <ele>70.64825</ele>
        <time>2020-07-27T12:00:46.370Z</time>
      </trkpt>
      <trkpt lat="61.46934" lon="5.2839">
        <ele>73.960603</ele>
        <time>2020-07-27T12:01:40.371Z</time>
      </trkpt>
      <trkpt lat="61.46902" lon="5.28834">
        <ele>83.153628</ele>
        <time>2020-07-27T12:02:50.397Z</time>
      </trkpt>
      <trkpt lat="61.46824" lon="5.29198">
        <ele>99.402825</ele>
        <time>2020-07-27T12:04:47.381Z</time>
      </trkpt>
      <trkpt lat="61.4671" lon="5.29519">
        <ele>107.904432</ele>
        <time>2020-07-27T12:06:58.434Z</time>
      </trkpt>
      <trkpt lat="61.46588" lon="5.29869">
        <ele>126.217057</ele>
        <time>2020-07-27T12:09:26.370Z</time>
      </trkpt>
      <trkpt lat="61.46485" lon="5.30209">
        <ele>144.281979</ele>
        <time>2020-07-27T12:11:40.384Z</time>
      </trkpt>
      <trkpt lat="61.46356" lon="5.30722">
        <ele>130.227891</ele>
        <time>2020-07-27T12:12:21.373Z</time>
      </trkpt>
      <trkpt lat="61.46269" lon="5.31147">
        <ele>111.627485</ele>
        <time>2020-07-27T12:12:43.373Z</time>
      </trkpt>
      <trkpt lat="61.4615" lon="5.31569">
        <ele>92.913468</ele>
        <time>2020-07-27T12:13:07.386Z</time>
      </trkpt>
      <trkpt lat="61.46035" lon="5.31975">
        <ele>87.470472</ele>
        <time>2020-07-27T12:14:44.380Z</time>
      </trkpt>
      <trkpt lat="61.46097" lon="5.33453">
        <ele>-1.990962</ele>
        <time>2020-07-27T12:16:39.402Z</time>
      </trkpt>
      <trkpt lat="61.46061" lon="5.33865">
        <ele>28.756429</ele>
        <time>2020-07-27T12:17:00.390Z</time>
      </trkpt>
      <trkpt lat="61.46007" lon="5.34318">
        <ele>53.523936</ele>
        <time>2020-07-27T12:17:35.381Z</time>
      </trkpt>
      <trkpt lat="61.45992" lon="5.34771">
        <ele>58.321132</ele>
        <time>2020-07-27T12:18:07.391Z</time>
      </trkpt>
      <trkpt lat="61.46008" lon="5.35284">
        <ele>56.529865</ele>
        <time>2020-07-27T12:18:44.371Z</time>
      </trkpt>
      <trkpt lat="61.46049" lon="5.357">
        <ele>68.418427</ele>
        <time>2020-07-27T12:20:41.370Z</time>
      </trkpt>
      <trkpt lat="61.46055" lon="5.36121">
        <ele>77.698895</ele>
        <time>2020-07-27T12:22:27.380Z</time>
      </trkpt>
      <trkpt lat="61.46042" lon="5.36582">
        <ele>72.404741</ele>
        <time>2020-07-27T12:23:15.407Z</time>
      </trkpt>
      <trkpt lat="61.4602" lon="5.37051">
        <ele>75.963667</ele>
        <time>2020-07-27T12:24:20.383Z</time>
      </trkpt>
      <trkpt lat="61.46036" lon="5.3748">
        <ele>82.055961</ele>
        <time>2020-07-27T12:25:38.374Z</time>
      </trkpt>
      <trkpt lat="61.45977" lon="5.37982">
        <ele>81.711007</ele>
        <time>2020-07-27T12:26:41.396Z</time>
      </trkpt>
      <trkpt lat="61.45914" lon="5.38404">
        <ele>71.822778</ele>
        <time>2020-07-27T12:27:28.407Z</time>
      </trkpt>
      <trkpt lat="61.45821" lon="5.38776">
        <ele>79.909248</ele>
        <time>2020-07-27T12:29:19.380Z</time>
      </trkpt>
      <trkpt lat="61.45733" lon="5.39139">
        <ele>106.837844</ele>
        <time>2020-07-27T12:31:33.399Z</time>
      </trkpt>
      <trkpt lat="61.45619" lon="5.39467">
        <ele>128.607984</ele>
        <time>2020-07-27T12:33:35.389Z</time>
      </trkpt>
      <trkpt lat="61.45493" lon="5.39799">
        <ele>138.834207</ele>
        <time>2020-07-27T12:35:26.387Z</time>
      </trkpt>
      <trkpt lat="61.45394" lon="5.40146">
        <ele>145.169654</ele>
        <time>2020-07-27T12:37:08.389Z</time>
      </trkpt>
      <trkpt lat="61.45323" lon="5.40543">
        <ele>145.821441</ele>
        <time>2020-07-27T12:38:43.404Z</time>
      </trkpt>
      <trkpt lat="61.45299" lon="5.40943">
        <ele>154.21076</ele>
        <time>2020-07-27T12:40:09.399Z</time>
      </trkpt>
      <trkpt lat="61.45272" lon="5.41363">
        <ele>165.024645</ele>
        <time>2020-07-27T12:41:38.377Z</time>
      </trkpt>
      <trkpt lat="61.45214" lon="5.41749">
        <ele>166.867872</ele>
        <time>2020-07-27T12:43:00.379Z</time>
      </trkpt>
      <trkpt lat="61.45212" lon="5.42257">
        <ele>162.476074</ele>
        <time>2020-07-27T12:44:03.402Z</time>
      </trkpt>
      <trkpt lat="61.45151" lon="5.42778">
        <ele>146.585035</ele>
        <time>2020-07-27T12:44:23.387Z</time>
      </trkpt>
      <trkpt lat="61.45062" lon="5.43226">
        <ele>132.896877</ele>
        <time>2020-07-27T12:44:43.413Z</time>
      </trkpt>
      <trkpt lat="61.44992" lon="5.43791">
        <ele>110.238866</ele>
        <time>2020-07-27T12:45:03.376Z</time>
      </trkpt>
      <trkpt lat="61.44902" lon="5.44277">
        <ele>95.691515</ele>
        <time>2020-07-27T12:45:23.396Z</time>
      </trkpt>
      <trkpt lat="61.44835" lon="5.44706">
        <ele>78.26868</ele>
        <time>2020-07-27T12:45:44.394Z</time>
      </trkpt>
      <trkpt lat="61.44769" lon="5.45176">
        <ele>57.152074</ele>
        <time>2020-07-27T12:46:04.393Z</time>
      </trkpt>
      <trkpt lat="61.44678" lon="5.45674">
        <ele>45.774075</ele>
        <time>2020-07-27T12:46:29.394Z</time>
      </trkpt>
      <trkpt lat="61.44594" lon="5.46053">
        <ele>75.05708</ele>
        <time>2020-07-27T12:48:10.391Z</time>
      </trkpt>
      <trkpt lat="61.44471" lon="5.46399">
        <ele>78.801332</ele>
        <time>2020-07-27T13:03:22.384Z</time>
      </trkpt>
      <trkpt lat="61.44357" lon="5.46775">
        <ele>82.532123</ele>
        <time>2020-07-27T13:04:22.381Z</time>
      </trkpt>
      <trkpt lat="61.44321" lon="5.4721">
        <ele>83.294147</ele>
        <time>2020-07-27T13:05:04.383Z</time>
      </trkpt>
      <trkpt lat="61.44283" lon="5.47658">
        <ele>81.26526</ele>
        <time>2020-07-27T13:06:03.394Z</time>
      </trkpt>
      <trkpt lat="61.44238" lon="5.48169">
        <ele>79.59404</ele>
        <time>2020-07-27T13:06:50.403Z</time>
      </trkpt>
      <trkpt lat="61.44216" lon="5.48653">
        <ele>77.424203</ele>
        <time>2020-07-27T13:07:22.385Z</time>
      </trkpt>
      <trkpt lat="61.44191" lon="5.4913">
        <ele>78.124354</ele>
        <time>2020-07-27T13:08:26.383Z</time>
      </trkpt>
      <trkpt lat="61.44144" lon="5.49619">
        <ele>78.252243</ele>
        <time>2020-07-27T13:09:22.398Z</time>
      </trkpt>
      <trkpt lat="61.44177" lon="5.50043">
        <ele>82.490261</ele>
        <time>2020-07-27T13:10:34.401Z</time>
      </trkpt>
      <trkpt lat="61.44181" lon="5.50489">
        <ele>84.437787</ele>
        <time>2020-07-27T13:11:37.416Z</time>
      </trkpt>
      <trkpt lat="61.44155" lon="5.50973">
        <ele>76.139316</ele>
        <time>2020-07-27T13:11:57.417Z</time>
      </trkpt>
      <trkpt lat="61.44121" lon="5.51452">
        <ele>62.293414</ele>
        <time>2020-07-27T13:12:20.398Z</time>
      </trkpt>
      <trkpt lat="61.44109" lon="5.51935">
        <ele>63.966429</ele>
        <time>2020-07-27T13:13:10.396Z</time>
      </trkpt>
      <trkpt lat="61.44104" lon="5.52529">
        <ele>68.1744</ele>
        <time>2020-07-27T13:13:54.398Z</time>
      </trkpt>
      <trkpt lat="61.44047" lon="5.52977">
        <ele>55.44639</ele>
        <time>2020-07-27T13:14:34.395Z</time>
      </trkpt>
      <trkpt lat="61.44014" lon="5.53391">
        <ele>50.934078</ele>
        <time>2020-07-27T13:15:14.419Z</time>
      </trkpt>
      <trkpt lat="61.44062" lon="5.53853">
        <ele>53.571786</ele>
        <time>2020-07-27T13:15:54.410Z</time>
      </trkpt>
      <trkpt lat="61.4406" lon="5.54303">
        <ele>53.272315</ele>
        <time>2020-07-27T13:16:34.393Z</time>
      </trkpt>
      <trkpt lat="61.4402" lon="5.54743">
        <ele>59.263517</ele>
        <time>2020-07-27T13:17:37.392Z</time>
      </trkpt>
      <trkpt lat="61.43989" lon="5.55165">
        <ele>71.11727</ele>
        <time>2020-07-27T13:19:15.404Z</time>
      </trkpt>
      <trkpt lat="61.43965" lon="5.55572">
        <ele>80.448407</ele>
        <time>2020-07-27T13:20:49.380Z</time>
      </trkpt>
      <trkpt lat="61.43988" lon="5.55971">
        <ele>99.126917</ele>
        <time>2020-07-27T13:23:03.394Z</time>
      </trkpt>
      <trkpt lat="61.44024" lon="5.56362">
        <ele>123.130898</ele>
        <time>2020-07-27T13:25:24.413Z</time>
      </trkpt>
      <trkpt lat="61.44041" lon="5.56779">
        <ele>134.014095</ele>
        <time>2020-07-27T13:27:49.391Z</time>
      </trkpt>
      <trkpt lat="61.44057" lon="5.57187">
        <ele>150.52009</ele>
        <time>2020-07-27T13:29:53.421Z</time>
      </trkpt>
      <trkpt lat="61.44052" lon="5.57587">
        <ele>166.535407</ele>
        <time>2020-07-27T13:32:04.372Z</time>
      </trkpt>
      <trkpt lat="61.44057" lon="5.58001">
        <ele>174.495571</ele>
        <time>2020-07-27T13:33:57.399Z</time>
      </trkpt>
      <trkpt lat="61.44027" lon="5.58403">
        <ele>186.998283</ele>
        <time>2020-07-27T13:36:07.405Z</time>
      </trkpt>
      <trkpt lat="61.43987" lon="5.58797">
        <ele>202.388954</ele>
        <time>2020-07-27T13:38:26.420Z</time>
      </trkpt>
      <trkpt lat="61.43921" lon="5.59188">
        <ele>218.525995</ele>
        <time>2020-07-27T13:40:52.405Z</time>
      </trkpt>
      <trkpt lat="61.43865" lon="5.59579">
        <ele>232.00989</ele>
        <time>2020-07-27T13:42:47.418Z</time>
      </trkpt>
      <trkpt lat="61.43839" lon="5.59995">
        <ele>242.903372</ele>
        <time>2020-07-27T13:44:35.403Z</time>
      </trkpt>
      <trkpt lat="61.43821" lon="5.60408">
        <ele>249.343862</ele>
        <time>2020-07-27T13:46:15.404Z</time>
      </trkpt>
      <trkpt lat="61.43763" lon="5.60808">
        <ele>256.583463</ele>
        <time>2020-07-27T13:47:55.405Z</time>
      </trkpt>
      <trkpt lat="61.43739" lon="5.61235">
        <ele>266.054038</ele>
        <time>2020-07-27T13:49:46.415Z</time>
      </trkpt>
      <trkpt lat="61.43733" lon="5.61662">
        <ele>265.772702</ele>
        <time>2020-07-27T13:51:01.432Z</time>
      </trkpt>
      <trkpt lat="61.43691" lon="5.62089">
        <ele>273.773677</ele>
        <time>2020-07-27T13:52:14.405Z</time>
      </trkpt>
      <trkpt lat="61.43686" lon="5.62495">
        <ele>284.693508</ele>
        <time>2020-07-27T13:54:20.406Z</time>
      </trkpt>
      <trkpt lat="61.43646" lon="5.62915">
        <ele>290.313252</ele>
        <time>2020-07-27T13:55:54.422Z</time>
      </trkpt>
      <trkpt lat="61.43598" lon="5.63354">
        <ele>289.656631</ele>
        <time>2020-07-27T13:57:07.439Z</time>
      </trkpt>
      <trkpt lat="61.43624" lon="5.63852">
        <ele>287.839962</ele>
        <time>2020-07-27T13:58:13.388Z</time>
      </trkpt>
      <trkpt lat="61.43613" lon="5.64316">
        <ele>285.010004</ele>
        <time>2020-07-27T13:59:16.414Z</time>
      </trkpt>
      <trkpt lat="61.43644" lon="5.6475">
        <ele>271.892164</ele>
        <time>2020-07-27T13:59:38.401Z</time>
      </trkpt>
      <trkpt lat="61.43735" lon="5.65192">
        <ele>259.167258</ele>
        <time>2020-07-27T13:59:58.398Z</time>
      </trkpt>
      <trkpt lat="61.43779" lon="5.6563">
        <ele>255.217941</ele>
        <time>2020-07-27T14:00:39.407Z</time>
      </trkpt>
      <trkpt lat="61.43971" lon="5.65578">
        <ele>262.999217</ele>
        <time>2020-07-27T14:01:50.400Z</time>
      </trkpt>
      <trkpt lat="61.44105" lon="5.65225">
        <ele>263.677622</ele>
        <time>2020-07-27T14:05:21.426Z</time>
      </trkpt>
      <trkpt lat="61.44309" lon="5.65199">
        <ele>272.870429</ele>
        <time>2020-07-27T14:06:38.404Z</time>
      </trkpt>
      <trkpt lat="61.44499" lon="5.65274">
        <ele>287.622662</ele>
        <time>2020-07-27T14:08:45.398Z</time>
      </trkpt>
      <trkpt lat="61.44694" lon="5.6531">
        <ele>304.904975</ele>
        <time>2020-07-27T14:10:41.438Z</time>
      </trkpt>
      <trkpt lat="61.44887" lon="5.65384">
        <ele>317.36316</ele>
        <time>2020-07-27T14:13:03.408Z</time>
      </trkpt>
      <trkpt lat="61.44976" lon="5.6568">
        <ele>333.599224</ele>
        <time>2020-07-27T14:15:37.404Z</time>
      </trkpt>
      <trkpt lat="61.45112" lon="5.65868">
        <ele>352.831556</ele>
        <time>2020-07-27T14:18:07.405Z</time>
      </trkpt>
      <trkpt lat="61.45209" lon="5.66265">
        <ele>343.936686</ele>
        <time>2020-07-27T14:19:00.402Z</time>
      </trkpt>
      <trkpt lat="61.45277" lon="5.66641">
        <ele>327.625179</ele>
        <time>2020-07-27T14:19:20.430Z</time>
      </trkpt>
      <trkpt lat="61.45349" lon="5.67067">
        <ele>315.663402</ele>
        <time>2020-07-27T14:19:43.435Z</time>
      </trkpt>
      <trkpt lat="61.45431" lon="5.67503">
        <ele>308.00234</ele>
        <time>2020-07-27T14:20:04.423Z</time>
      </trkpt>
      <trkpt lat="61.45541" lon="5.67902">
        <ele>320.438068</ele>
        <time>2020-07-27T14:21:06.431Z</time>
      </trkpt>
      <trkpt lat="61.45493" lon="5.68571">
        <ele>357.944023</ele>
        <time>2020-07-27T14:29:50.408Z</time>
      </trkpt>
      <trkpt lat="61.45554" lon="5.68944">
        <ele>369.815059</ele>
        <time>2020-07-27T14:32:10.417Z</time>
      </trkpt>
      <trkpt lat="61.45695" lon="5.6915">
        <ele>376.059062</ele>
        <time>2020-07-27T14:34:20.401Z</time>
      </trkpt>
      <trkpt lat="61.45885" lon="5.68987">
        <ele>392.645643</ele>
        <time>2020-07-27T14:36:49.460Z</time>
      </trkpt>
      <trkpt lat="61.46075" lon="5.68942">
        <ele>408.395897</ele>
        <time>2020-07-27T14:39:06.440Z</time>
      </trkpt>
      <trkpt lat="61.46255" lon="5.69042">
        <ele>426.404643</ele>
        <time>2020-07-27T14:41:43.431Z</time>
      </trkpt>
      <trkpt lat="61.46287" lon="5.69396">
        <ele>443.254497</ele>
        <time>2020-07-27T14:44:28.431Z</time>
      </trkpt>
      <trkpt lat="61.46204" lon="5.69752">
        <ele>458.663107</ele>
        <time>2020-07-27T14:47:01.432Z</time>
      </trkpt>
      <trkpt lat="61.46194" lon="5.70153">
        <ele>474.786926</ele>
        <time>2020-07-27T14:49:44.446Z</time>
      </trkpt>
      <trkpt lat="61.4632" lon="5.70467">
        <ele>487.964681</ele>
        <time>2020-07-27T14:51:38.431Z</time>
      </trkpt>
      <trkpt lat="61.46425" lon="5.70795">
        <ele>499.319377</ele>
        <time>2020-07-27T14:53:34.432Z</time>
      </trkpt>
      <trkpt lat="61.4668" lon="5.71872">
        <ele>514.592857</ele>
        <time>2020-07-27T14:58:11.407Z</time>
      </trkpt>
      <trkpt lat="61.46863" lon="5.72137">
        <ele>492.27281</ele>
        <time>2020-07-27T14:58:37.446Z</time>
      </trkpt>
      <trkpt lat="61.47074" lon="5.72359">
        <ele>470.790434</ele>
        <time>2020-07-27T14:58:57.458Z</time>
      </trkpt>
      <trkpt lat="61.47238" lon="5.727">
        <ele>445.641376</ele>
        <time>2020-07-27T14:59:18.407Z</time>
      </trkpt>
      <trkpt lat="61.4736" lon="5.73172">
        <ele>422.069986</ele>
        <time>2020-07-27T14:59:38.424Z</time>
      </trkpt>
      <trkpt lat="61.47531" lon="5.73584">
        <ele>402.031434</ele>
        <time>2020-07-27T14:59:58.430Z</time>
      </trkpt>
      <trkpt lat="61.47705" lon="5.73899">
        <ele>395.747939</ele>
        <time>2020-07-27T15:00:33.418Z</time>
      </trkpt>
      <trkpt lat="61.47802" lon="5.74245">
        <ele>414.800806</ele>
        <time>2020-07-27T15:02:41.411Z</time>
      </trkpt>
      <trkpt lat="61.4782" lon="5.747">
        <ele>424.23158</ele>
        <time>2020-07-27T15:04:10.447Z</time>
      </trkpt>
      <trkpt lat="61.47781" lon="5.75159">
        <ele>409.151374</ele>
        <time>2020-07-27T15:04:33.451Z</time>
      </trkpt>
      <trkpt lat="61.47743" lon="5.75586">
        <ele>386.599001</ele>
        <time>2020-07-27T15:04:54.442Z</time>
      </trkpt>
      <trkpt lat="61.47715" lon="5.75981">
        <ele>360.547747</ele>
        <time>2020-07-27T15:05:14.415Z</time>
      </trkpt>
      <trkpt lat="61.47815" lon="5.76384">
        <ele>338.326807</ele>
        <time>2020-07-27T15:05:34.422Z</time>
      </trkpt>
      <trkpt lat="61.47755" lon="5.76834">
        <ele>319.348327</ele>
        <time>2020-07-27T15:05:54.460Z</time>
      </trkpt>
      <trkpt lat="61.47733" lon="5.77419">
        <ele>292.609526</ele>
        <time>2020-07-27T15:06:15.434Z</time>
      </trkpt>
      <trkpt lat="61.47777" lon="5.77888">
        <ele>268.578697</ele>
        <time>2020-07-27T15:06:35.407Z</time>
      </trkpt>
      <trkpt lat="61.4786" lon="5.78299">
        <ele>248.715518</ele>
        <time>2020-07-27T15:06:56.411Z</time>
      </trkpt>
      <trkpt lat="61.47765" lon="5.78795">
        <ele>222.676584</ele>
        <time>2020-07-27T15:07:38.408Z</time>
      </trkpt>
      <trkpt lat="61.47581" lon="5.79075">
        <ele>203.987729</ele>
        <time>2020-07-27T15:08:04.411Z</time>
      </trkpt>
      <trkpt lat="61.47324" lon="5.79214">
        <ele>188.992539</ele>
        <time>2020-07-27T15:10:16.438Z</time>
      </trkpt>
      <trkpt lat="61.47131" lon="5.79437">
        <ele>170.036986</ele>
        <time>2020-07-27T15:10:42.421Z</time>
      </trkpt>
      <trkpt lat="61.46918" lon="5.79457">
        <ele>151.292162</ele>
        <time>2020-07-27T15:11:05.420Z</time>
      </trkpt>
      <trkpt lat="61.46727" lon="5.79632">
        <ele>130.639398</ele>
        <time>2020-07-27T15:11:25.431Z</time>
      </trkpt>
      <trkpt lat="61.46573" lon="5.7996">
        <ele>99.419349</ele>
        <time>2020-07-27T15:11:55.418Z</time>
      </trkpt>
      <trkpt lat="61.46469" lon="5.80295">
        <ele>81.824326</ele>
        <time>2020-07-27T15:12:15.427Z</time>
      </trkpt>
      <trkpt lat="61.46382" lon="5.80801">
        <ele>64.710113</ele>
        <time>2020-07-27T15:12:46.442Z</time>
      </trkpt>
      <trkpt lat="61.46161" lon="5.81136">
        <ele>65.907683</ele>
        <time>2020-07-27T15:13:18.423Z</time>
      </trkpt>
      <trkpt lat="61.46007" lon="5.81463">
        <ele>69.115373</ele>
        <time>2020-07-27T15:14:02.430Z</time>
      </trkpt>
      <trkpt lat="61.45992" lon="5.82175">
        <ele>71.403458</ele>
        <time>2020-07-27T15:15:50.440Z</time>
      </trkpt>
      <trkpt lat="61.45915" lon="5.8263">
        <ele>67.769838</ele>
        <time>2020-07-27T15:16:31.419Z</time>
      </trkpt>
      <trkpt lat="61.4577" lon="5.82898">
        <ele>66.707867</ele>
        <time>2020-07-27T15:17:48.456Z</time>
      </trkpt>
      <trkpt lat="61.456" lon="5.83146">
        <ele>65.327242</ele>
        <time>2020-07-27T15:18:46.435Z</time>
      </trkpt>
      <trkpt lat="61.45552" lon="5.8357">
        <ele>57.198561</ele>
        <time>2020-07-27T15:19:38.419Z</time>
      </trkpt>
      <trkpt lat="61.45459" lon="5.83923">
        <ele>62.398812</ele>
        <time>2020-07-27T15:20:22.435Z</time>
      </trkpt>
      <trkpt lat="61.45327" lon="5.84235">
        <ele>62.304202</ele>
        <time>2020-07-27T15:21:06.439Z</time>
      </trkpt>
      <trkpt lat="61.4518" lon="5.84598">
        <ele>63.831892</ele>
        <time>2020-07-27T15:22:27.425Z</time>
      </trkpt>
      <trkpt lat="61.45022" lon="5.8494">
        <ele>57.050821</ele>
        <time>2020-07-27T15:23:16.440Z</time>
      </trkpt>
      <trkpt lat="61.4515" lon="5.84873">
        <ele>49.481564</ele>
        <time>2020-07-27T15:47:37.422Z</time>
      </trkpt>
      <trkpt lat="61.45016" lon="5.85072">
        <ele>53.642755</ele>
        <time>2020-07-27T15:52:29.423Z</time>
      </trkpt>
      <trkpt lat="61.45018" lon="5.8552">
        <ele>63.505112</ele>
        <time>2020-07-27T15:53:36.436Z</time>
      </trkpt>
      <trkpt lat="61.44942" lon="5.85788">
        <ele>62.147606</ele>
        <time>2020-07-27T15:55:00.422Z</time>
      </trkpt>
      <trkpt lat="61.44952" lon="5.8628">
        <ele>57.689307</ele>
        <time>2020-07-27T15:55:54.419Z</time>
      </trkpt>
      <trkpt lat="61.44937" lon="5.86721">
        <ele>57.350349</ele>
        <time>2020-07-27T15:56:37.443Z</time>
      </trkpt>
      <trkpt lat="61.44875" lon="5.87098">
        <ele>54.378668</ele>
        <time>2020-07-27T15:57:17.441Z</time>
      </trkpt>
      <trkpt lat="61.44842" lon="5.87586">
        <ele>52.529984</ele>
        <time>2020-07-27T15:57:57.427Z</time>
      </trkpt>
      <trkpt lat="61.44803" lon="5.88024">
        <ele>49.862984</ele>
        <time>2020-07-27T15:58:37.460Z</time>
      </trkpt>
      <trkpt lat="61.44792" lon="5.88425">
        <ele>52.454261</ele>
        <time>2020-07-27T15:59:28.447Z</time>
      </trkpt>
      <trkpt lat="61.44931" lon="5.88702">
        <ele>54.580006</ele>
        <time>2020-07-27T16:00:08.439Z</time>
      </trkpt>
      <trkpt lat="61.44933" lon="5.89">
        <ele>55.026561</ele>
        <time>2020-07-27T16:00:54.426Z</time>
      </trkpt>
    </trkseg>
  </trk>
</gpx>